Flight Track Log - Related Links

Times and Time Zones

All times are in EDT time to prevent confusion due to time zone crossing. See the TRS310 flight status page for this flight to view local times or setup timezone preferences in your user account.

Time Position Orientation Groundspeed Altitude Reporting Facility
EDT Latitude Longitude Course Direction KTS MPH feet Rate Location/Type
Thu 12:12:02 PM 42.8789 -85.4436 173° South 184 212 3,000  Level Chicago Center
Thu 12:13:04 PM 42.8153 -85.4286 170° South 241 277 4,500 1,887 Climbing Chicago Center
Thu 12:14:06 PM 42.7417 -85.4250 178° South 250 288 6,900 2,323 Climbing Chicago Center
Thu 12:15:08 PM 42.6617 -85.4117 173° South 270 311 9,300 1,887 Climbing Chicago Center
Thu 12:16:10 PM 42.5967 -85.3494 145° Southeast 305 351 10,800 1,258 Climbing Chicago Center
Thu 12:17:00 PM 42.1704 -85.2731 173° South  Level Estimated
Thu 12:17:12 PM 42.5403 -85.2472 127° Southeast 359 413 11,900  Level Chicago Center
Thu 12:18:14 PM 42.4156 -85.2378 177° South 377 434 14,000 2,032 Climbing Chicago Center
Thu 12:19:16 PM 42.3061 -85.2331 178° South 390 449 16,100 1,839 Climbing Chicago Center
Thu 12:20:18 PM 42.1956 -85.2300 179° South 396 456 17,800 912 Climbing Chicago Center
Thu 12:21:21 PM 42.0808 -85.2242 178° South 408 470 18,000 96 Climbing Chicago Center
Thu 12:22:23 PM 41.9681 -85.2233 180° South 410 472 18,000 339 Level Chicago Center
Thu 12:23:25 PM 41.8539 -85.2189 178° South 409 471 18,700 1,452 Climbing Chicago Center
Thu 12:24:27 PM 41.7125 -85.2131 178° South 414 476 21,000 1,984 Climbing Chicago Center
Thu 12:25:29 PM 41.5875 -85.2075 178° South 436 502 22,800 1,597 Climbing Chicago Center
Thu 12:26:31 PM 41.4614 -85.2036 179° South 445 512 24,300 1,403 Climbing Chicago Center
Thu 12:27:33 PM 41.3331 -85.1908 176° South 458 527 25,700 1,355 Climbing Chicago Center
Thu 12:28:35 PM 41.2036 -85.1747 175° South 465 535 27,100 1,161 Climbing Chicago Center
Thu 12:29:37 PM 41.0719 -85.1603 175° South 473 544 28,100 1,161 Climbing Chicago Center
Thu 12:30:39 PM 40.9378 -85.1456 175° South 481 554 29,500 1,306 Climbing Chicago Center
Thu 12:31:41 PM 40.8058 -85.1319 176° South 478 550 30,800 1,258 Climbing Chicago Center
Thu 12:32:43 PM 40.6461 -85.1139 175° South 476 548 32,100 1,118 Climbing Chicago Center
Thu 12:33:23 PM 40.5669 -85.1069 176° South 480 552 32,700 529 Climbing Indianapolis Center
Thu 12:34:25 PM 40.4325 -85.0944 176° South 484 557 33,000 435 Climbing Indianapolis Center
Thu 12:35:27 PM 40.2983 -85.0797 175° South 482 555 33,600 677 Climbing Indianapolis Center
Thu 12:36:29 PM 40.1631 -85.0647 175° South 487 560 34,400 677 Climbing Indianapolis Center
Thu 12:37:31 PM 40.0289 -85.0508 175° South 484 557 35,000 290 Climbing Indianapolis Center
Thu 12:38:33 PM 39.8697 -85.0347 176° South 478 550 35,000  Level Indianapolis Center
Thu 12:39:35 PM 39.7361 -85.0206 175° South 480 552 35,000  Level Indianapolis Center
Thu 12:40:37 PM 39.6022 -85.0064 175° South 482 555 35,000  Level Indianapolis Center
Thu 12:41:39 PM 39.4678 -84.9931 176° South 485 558 35,000  Level Indianapolis Center
Thu 12:42:41 PM 39.3333 -84.9794 176° South 484 557 35,000  Level Indianapolis Center
Thu 12:43:43 PM 39.1981 -84.9658 176° South 486 559 35,000  Level Indianapolis Center
Thu 12:44:45 PM 39.0358 -84.9492 175° South 486 559 35,000  Level Indianapolis Center
Thu 12:45:46 PM 38.8992 -84.9342 175° South 492 566 35,000  Level Indianapolis Center
Thu 12:46:48 PM 38.7639 -84.9200 175° South 488 562 35,000  Level Indianapolis Center
Thu 12:47:50 PM 38.6169 -84.9061 176° South 493 567 35,000  Level Indianapolis Center
Thu 12:48:52 PM 38.4794 -84.8925 176° South 493 567 35,000  Level Indianapolis Center
Thu 12:49:54 PM 38.3408 -84.8775 175° South 497 572 35,000  Level Indianapolis Center
Thu 12:50:56 PM 38.2025 -84.8647 176° South 499 574 35,000  Level Indianapolis Center
Thu 12:51:58 PM 38.0656 -84.8517 176° South 492 566 35,000  Level Indianapolis Center
Thu 12:53:00 PM 37.9042 -84.8347 175° South 498 573 35,000  Level Indianapolis Center
Thu 12:54:02 PM 37.7661 -84.8219 176° South 498 573 35,000  Level Indianapolis Center
Thu 12:55:04 PM 37.6272 -84.8058 175° South 499 574 35,000  Level Indianapolis Center
Thu 12:56:06 PM 37.4861 -84.7942 176° South 504 580 35,000  Level Indianapolis Center
Thu 12:57:08 PM 37.3461 -84.7811 176° South 506 582 35,000  Level Indianapolis Center
Thu 12:58:10 PM 37.1828 -84.7644 175° South 506 582 35,000  Level Indianapolis Center
Thu 12:59:12 PM 37.0403 -84.7511 176° South 510 587 35,000  Level Indianapolis Center
Thu 01:00:13 PM 36.8894 -84.7361 175° South 511 588 35,000  Level Indianapolis Center
Thu 01:01:15 PM 36.7486 -84.7225 176° South 509 586 35,000  Level Indianapolis Center
Thu 01:02:17 PM 36.6128 -84.7100 176° South 493 567 35,000  Level Indianapolis Center
Thu 01:03:19 PM 36.4747 -84.6969 176° South 494 568 35,000  Level Indianapolis Center
Thu 01:04:22 PM 36.3383 -84.6842 176° South 492 566 35,000  Level Indianapolis Center
Thu 01:05:23 PM 36.2008 -84.6700 175° South 492 566 35,000  Level Indianapolis Center
Thu 01:06:25 PM 36.0636 -84.6567 176° South 491 565 35,000  Level Indianapolis Center
Thu 01:07:27 PM 35.8983 -84.6114 167° South 498 573 35,000  Level Indianapolis Center
Thu 01:08:30 PM 35.7567 -84.5736 168° South 505 581 35,000  Level Atlanta Center
Thu 01:09:30 PM 35.6233 -84.5394 168° South 505 581 35,000  Level Atlanta Center
Thu 01:10:30 PM 35.4858 -84.5006 167° South 505 581 35,000  Level Atlanta Center
Thu 01:11:30 PM 35.3461 -84.4614 167° South 505 581 35,000  Level Atlanta Center
Thu 01:12:30 PM 35.2086 -84.4250 168° South 505 581 35,000  Level Atlanta Center
Thu 01:13:30 PM 35.0711 -84.3889 168° South 505 581 35,000  Level Atlanta Center
Thu 01:14:30 PM 34.9583 -84.3581 167° South 505 581 35,000  Level Atlanta Center
Thu 01:15:30 PM 34.8083 -84.3119 166° South 505 581 35,000  Level Atlanta Center
Thu 01:16:30 PM 34.6706 -84.2761 168° South 510 587 35,000  Level Atlanta Center
Thu 01:17:30 PM 34.5308 -84.2381 167° South 510 587 35,000  Level Atlanta Center
Thu 01:18:30 PM 34.3764 -84.1972 168° South 510 587 35,000  Level Atlanta Center
Thu 01:19:30 PM 34.2325 -84.1619 169° South 521 600 35,000  Level Atlanta Center
Thu 01:20:30 PM 34.0906 -84.1192 166° South 526 605 35,000  Level Atlanta Center
Thu 01:21:30 PM 33.9550 -84.0739 165° South 526 605 35,000  Level Atlanta Center
Thu 01:22:30 PM 33.8131 -84.0339 167° South 526 605 35,000  Level Atlanta Center
Thu 01:23:30 PM 33.6919 -83.9989 166° South 516 594 35,000  Level Atlanta Center
Thu 01:24:30 PM 33.5542 -83.9564 166° South 511 588 35,000  Level Atlanta Center
Thu 01:25:30 PM 33.4164 -83.9169 167° South 506 582 35,000  Level Atlanta Center
Thu 01:26:30 PM 33.2828 -83.8772 166° South 506 582 35,000  Level Atlanta Center
Thu 01:27:30 PM 33.1492 -83.8378 166° South 501 577 35,000  Level Atlanta Center
Thu 01:28:30 PM 33.0175 -83.7961 165° South 501 577 35,000  Level Atlanta Center
Thu 01:29:30 PM 32.8817 -83.7569 166° South 496 571 35,000  Level Atlanta Center
Thu 01:30:30 PM 32.7461 -83.7178 166° South 496 571 35,000  Level Atlanta Center
Thu 01:31:30 PM 32.6122 -83.6764 165° South 490 564 35,000  Level Atlanta Center
Thu 01:32:30 PM 32.4847 -83.6375 166° South 485 558 35,000  Level Atlanta Center
Thu 01:33:30 PM 32.3533 -83.5986 166° South 485 558 35,000  Level Atlanta Center
Thu 01:34:30 PM 32.2194 -83.5600 166° South 491 565 35,000  Level Atlanta Center
Thu 01:37:58 PM 31.7644 -83.4228 166° South 477 549 35,000  Level Jacksonville Center
Thu 01:38:58 PM 31.6331 -83.3831 166° South 482 555 35,000  Level Jacksonville Center
Thu 01:39:58 PM 31.5144 -83.3167 154° Southeast 482 555 35,000  Level Jacksonville Center
Thu 01:40:58 PM 31.3956 -83.2503 155° Southeast 482 555 35,000  Level Jacksonville Center
Thu 01:41:58 PM 31.2767 -83.1819 154° Southeast 477 549 35,000  Level Jacksonville Center
Thu 01:42:58 PM 31.1578 -83.1136 154° Southeast 477 549 35,000 -1,041 Level Jacksonville Center
Thu 01:43:59 PM 31.0347 -83.0453 155° Southeast 482 555 32,900 -2,800 Descending Jacksonville Center
Thu 01:44:58 PM 30.9075 -82.9750 155° Southeast 487 560 29,400 -2,975 Descending Jacksonville Center
Thu 01:45:58 PM 30.7717 -82.9022 155° Southeast 487 560 27,000 -1,200 Descending Jacksonville Center
Thu 01:46:58 PM 30.6506 -82.8322 154° Southeast 487 560 27,000  Level Jacksonville Center
Thu 01:47:58 PM 30.5442 -82.7694 153° Southeast 487 560 27,000 -200 Level Jacksonville Center
Thu 01:48:58 PM 30.4208 -82.7000 154° Southeast 487 560 26,600 -600 Descending Jacksonville Center
Thu 01:49:58 PM 30.2850 -82.6303 156° South 487 560 25,800 -800 Descending Jacksonville Center
Thu 01:50:58 PM 30.1658 -82.5611 153° Southeast 487 560 25,000 -400 Descending Jacksonville Center
Thu 01:51:58 PM 30.0489 -82.4967 154° Southeast 482 555 25,000  Level Jacksonville Center
Thu 01:52:58 PM 29.9317 -82.4325 155° Southeast 472 543 25,000  Level Jacksonville Center
Thu 01:53:58 PM 29.8103 -82.3731 157° South 472 543 25,000  Level Jacksonville Center
Thu 01:54:58 PM 29.6889 -82.3164 158° South 472 543 25,000 -150 Level Jacksonville Center
Thu 01:55:58 PM 29.5719 -82.2597 157° South 467 537 24,700 -1,400 Descending Jacksonville Center
Thu 01:56:58 PM 29.4525 -82.2033 158° South 467 537 22,200 -2,500 Descending Jacksonville Center
Thu 01:57:58 PM 29.3436 -82.1494 157° South 456 525 19,700 -2,400 Descending Jacksonville Center
Thu 01:58:58 PM 29.2347 -82.1000 158° South 434 499 17,400 -2,350 Descending Jacksonville Center
Thu 01:59:58 PM 29.1303 -82.0511 158° South 419 482 15,000 -2,300 Descending Jacksonville Center
Thu 02:00:58 PM 29.0317 -82.0019 156° South 401 461 12,800 -1,850 Descending Jacksonville Center
Thu 02:01:58 PM 28.9353 -81.9556 157° South 390 449 11,300 -950 Descending Jacksonville Center
Thu 02:02:58 PM 28.8639 -81.9017 147° Southeast 329 379 10,900 -200 Descending Jacksonville Center
Thu 02:03:58 PM 28.8153 -81.8167 123° Southeast 318 366 10,900 -550 Level Jacksonville Center
Thu 02:04:58 PM 28.7811 -81.7247 113° Southeast 311 358 9,800 -1,000 Descending Jacksonville Center
Thu 02:05:58 PM 28.7572 -81.6328 106° East 304 350 8,900 -900 Descending Jacksonville Center
Thu 02:06:58 PM 28.7375 -81.5406 104° East 298 343 8,000 -1,100 Descending Jacksonville Center
Thu 02:07:58 PM 28.7033 -81.4678 118° Southeast 284 327 6,700 -1,650 Descending Jacksonville Center
Thu 02:08:58 PM 28.6753 -81.3900 112° Southeast 264 304 4,700 -1,714 Descending Jacksonville Center
Thu 02:10:18 PM 28.6000 -81.3500 155° Southeast 221 254 2,700 -910 Descending Orlando TRACON
Thu 02:11:23 PM 28.5500 -81.3167 150° Southeast 174 200 2,500 -524 Descending Orlando TRACON
Thu 02:12:24 PM 28.5000 -81.3167 180° South 140 161 1,600 -939 Descending Orlando TRACON
Thu 02:13:18 PM 28.4667 -81.3167 180° South 134 154 700 -1,000 Descending Orlando TRACON
Thu 02:15:00 PM 28.4294 -81.3090 180° South  Level Estimated
Thu 02:22:00 PM 28.4294 -81.3090 24° Northeast  Level Estimated
Thu 02:23:00 PM 28.4294 -81.3090 24° Northeast  Level Estimated
Thu 02:24:00 PM 28.4294 -81.3090 24° Northeast  Level Estimated
Thu 02:25:00 PM 28.4294 -81.3090 24° Northeast  Level Estimated

Login

Don't have an account? Register now (free) for customized features, flight alerts, and more!